Decoded Metar for TFFF (FORT-DE-FRANCE in ANTILLES) (IATA:FDF) | Meteo·Mobile Aviation Weather
aviador You're here:

TFFF Decoded Metar

FORT-DE-FRANCE in ANTILLES
Report Time2019-04-25 21:30:00
UTC Time2019-04-25 21:43:56
Flight Rules mvfr MVFR
Wind080° at 09 kt
W.Decomp.*RWY 10: 9.0 kt HW 0.8 kt LCW
Visibility9999 m
Phenomena:N/A
Clouds:Broken 023 Hf
Broken 028 Hf
Broken 035 Hf
Expected CloudBase > 1,600 ft AGL from Temp-Dew spread
Ceiling2,300 ft
Temp28°C (ISA +13)
Dew Point24°C (79% RH)
Heat Index31.9°C
QNH1014 hPa
Density Alt1,873 ft
Elevation16 ft
Report Wrong Elevation
Raw Report
METAR TFFF 252130Z AUTO 08009KT 9999 BKN023 BKN028 BKN035 28/24 Q1014=

Extra information for TFFF:More info

Metar Taf Metar & Taf Last 4 Metars F.Rules Stats Wind Profile Meteogram Temp Stats Airport Information Weather charts Add Link Nearby VenuesMetar ALERT Operation Metar Decoded Social comments